createdAt,value
2017-08-03T00:00:55.448Z,37.30
2017-08-03T00:03:23.516Z,34.43
2017-08-03T00:05:51.689Z,40.23
2017-08-03T00:08:19.760Z,49.77
2017-08-03T00:10:47.790Z,37.93
2017-08-03T00:13:15.985Z,34.17
2017-08-03T00:15:44.023Z,31.87
2017-08-03T00:18:12.077Z,40.83
2017-08-03T00:20:40.426Z,50.83
2017-08-03T00:23:09.222Z,51.63
2017-08-03T00:25:37.297Z,43.27
2017-08-03T00:28:05.444Z,63.80
2017-08-03T00:30:33.516Z,61.20
2017-08-03T00:33:01.538Z,54.03
2017-08-03T00:35:29.707Z,50.97
2017-08-03T00:37:57.796Z,56.70
2017-08-03T00:40:25.806Z,53.43
2017-08-03T00:42:54.072Z,66.03
2017-08-03T00:45:22.122Z,67.00
2017-08-03T00:47:50.193Z,56.80
2017-08-03T00:50:18.370Z,49.17
2017-08-03T00:52:46.456Z,57.67
2017-08-03T00:55:14.530Z,54.60
2017-08-03T00:57:42.705Z,39.27
2017-08-03T01:00:10.922Z,54.47
2017-08-03T01:02:38.959Z,59.17
2017-08-03T01:05:07.128Z,46.20
2017-08-03T01:07:35.186Z,43.00
2017-08-03T01:10:03.235Z,48.13
2017-08-03T01:12:31.438Z,46.30
2017-08-03T01:14:59.520Z,43.33
2017-08-03T01:17:27.625Z,38.23
2017-08-03T01:19:55.796Z,43.63
2017-08-03T01:22:23.943Z,44.27
2017-08-03T01:24:52.019Z,42.30
2017-08-03T01:27:20.184Z,36.00
2017-08-03T01:29:48.238Z,58.43
2017-08-03T01:32:16.282Z,52.23
2017-08-03T01:34:44.436Z,35.07
2017-08-03T01:37:12.563Z,43.73
2017-08-03T01:39:40.667Z,46.33
2017-08-03T01:42:08.882Z,37.87
2017-08-03T01:44:36.926Z,51.30
2017-08-03T01:47:11.742Z,33.57
2017-08-03T01:49:39.786Z,54.53
2017-08-03T01:52:07.922Z,38.47
2017-08-03T01:54:36.124Z,45.07
2017-08-03T01:57:04.249Z,50.40
2017-08-03T01:59:32.273Z,34.50
2017-08-03T02:02:00.462Z,40.17
2017-08-03T02:04:28.503Z,44.33
2017-08-03T02:06:56.748Z,41.80
2017-08-03T02:09:24.976Z,50.07
2017-08-03T02:11:53.092Z,41.67
2017-08-03T02:14:21.169Z,36.43
2017-08-03T02:16:49.370Z,47.40
2017-08-03T02:19:17.390Z,27.60
2017-08-03T02:21:45.473Z,41.43
2017-08-03T02:24:13.744Z,40.50
2017-08-03T02:26:41.832Z,39.83
2017-08-03T02:29:09.862Z,40.83
2017-08-03T02:31:38.046Z,42.17
2017-08-03T02:34:06.092Z,31.60
2017-08-03T02:36:34.195Z,47.90
2017-08-03T02:39:02.437Z,46.80
2017-08-03T02:41:30.508Z,54.73
2017-08-03T02:43:58.654Z,49.00
2017-08-03T02:46:26.821Z,50.67
2017-08-03T02:48:54.862Z,58.47
2017-08-03T02:51:22.909Z,58.53
2017-08-03T02:53:51.118Z,44.73
2017-08-03T02:56:19.210Z,43.40
2017-08-03T02:58:47.273Z,45.70
2017-08-03T03:01:15.454Z,50.73
2017-08-03T03:03:43.572Z,47.47
2017-08-03T03:06:11.636Z,44.77
2017-08-03T03:08:39.856Z,51.17
2017-08-03T03:11:08.093Z,56.40
2017-08-03T03:13:36.211Z,49.10
2017-08-03T03:16:04.581Z,59.37
2017-08-03T03:18:32.635Z,57.10
2017-08-03T03:21:01.012Z,42.90
2017-08-03T03:23:29.261Z,60.57
2017-08-03T03:25:57.471Z,41.87
2017-08-03T03:28:25.502Z,42.70
2017-08-03T03:30:53.674Z,51.87
2017-08-03T03:33:21.726Z,45.13
2017-08-03T03:35:49.776Z,50.27
2017-08-03T03:38:18.024Z,59.17
2017-08-03T03:40:46.082Z,46.77
2017-08-03T03:43:14.177Z,46.47
2017-08-03T03:45:42.345Z,47.90
2017-08-03T03:48:10.452Z,66.80
2017-08-03T03:50:38.488Z,60.83
2017-08-03T03:53:06.737Z,49.43
2017-08-03T03:55:34.852Z,71.17
2017-08-03T03:58:02.909Z,47.03
2017-08-03T04:00:31.018Z,64.07
2017-08-03T04:02:59.078Z,59.57
2017-08-03T04:05:27.146Z,59.67
2017-08-03T04:07:55.388Z,45.93
2017-08-03T04:10:23.450Z,59.90
2017-08-03T04:12:51.506Z,51.03
2017-08-03T04:15:19.706Z,50.13
2017-08-03T04:17:47.783Z,45.97
2017-08-03T04:20:15.866Z,43.30
2017-08-03T04:22:44.088Z,52.13
2017-08-03T04:25:12.109Z,47.23
2017-08-03T04:27:40.245Z,51.90
2017-08-03T04:30:08.469Z,57.13
2017-08-03T04:32:36.528Z,55.97
2017-08-03T04:35:04.567Z,53.60
2017-08-03T04:37:32.732Z,38.87
2017-08-03T04:40:00.815Z,47.47
2017-08-03T04:42:28.817Z,66.03
2017-08-03T04:44:56.956Z,53.77
2017-08-03T04:47:25.057Z,42.60
2017-08-03T04:49:53.051Z,65.20
2017-08-03T04:52:21.215Z,38.20
2017-08-03T04:54:49.293Z,53.80
2017-08-03T04:57:17.364Z,39.25
2017-08-03T04:59:45.708Z,41.67
2017-08-03T05:02:13.782Z,34.25
2017-08-03T05:04:41.827Z,34.72
2017-08-03T05:07:09.954Z,40.80
2017-08-03T05:09:38.040Z,35.22
2017-08-03T05:12:06.087Z,32.03
2017-08-03T05:14:34.270Z,27.85
2017-08-03T05:17:02.290Z,35.97
2017-08-03T05:19:30.323Z,34.70
2017-08-03T05:21:58.474Z,35.05
2017-08-03T05:24:26.578Z,33.50
2017-08-03T05:26:54.664Z,43.17
2017-08-03T05:29:22.991Z,33.33
2017-08-03T05:31:51.059Z,34.05
2017-08-03T05:34:19.140Z,40.50
2017-08-03T05:36:47.372Z,31.17
2017-08-03T05:39:15.401Z,30.12
2017-08-03T05:41:43.485Z,36.88
2017-08-03T05:44:11.685Z,33.45
2017-08-03T05:46:39.741Z,28.12
2017-08-03T05:49:07.782Z,34.58
2017-08-03T05:51:35.933Z,44.72
2017-08-03T05:54:04.011Z,35.80
2017-08-03T05:56:32.105Z,41.80
2017-08-03T05:59:00.276Z,32.78
2017-08-03T06:01:28.400Z,31.20
2017-08-03T06:03:56.498Z,35.83
2017-08-03T06:06:24.780Z,37.58
2017-08-03T06:08:52.892Z,28.17
2017-08-03T06:11:21.006Z,44.30
2017-08-03T06:13:49.161Z,36.75
2017-08-03T06:16:17.246Z,32.75
2017-08-03T06:18:45.290Z,29.02
2017-08-03T06:21:13.475Z,32.00
2017-08-03T06:23:41.510Z,40.63
2017-08-03T06:26:09.514Z,36.95
2017-08-03T06:28:37.672Z,37.03
2017-08-03T06:31:05.843Z,47.40
2017-08-03T06:33:33.964Z,30.45
2017-08-03T06:36:02.188Z,32.35
2017-08-03T06:38:30.235Z,33.03
2017-08-03T06:40:58.400Z,29.63
2017-08-03T06:43:26.607Z,38.38
2017-08-03T06:45:54.825Z,47.42
2017-08-03T06:48:22.866Z,39.60
2017-08-03T06:50:51.051Z,50.05
2017-08-03T06:53:19.116Z,27.15
2017-08-03T06:55:47.219Z,36.22
2017-08-03T06:58:15.445Z,34.60
2017-08-03T07:00:43.482Z,35.65
2017-08-03T07:03:11.486Z,37.25
2017-08-03T07:05:39.633Z,46.75
2017-08-03T07:08:07.694Z,42.38
2017-08-03T07:10:35.725Z,33.92
2017-08-03T07:13:03.946Z,34.35
2017-08-03T07:15:31.994Z,37.63
2017-08-03T07:18:00.066Z,36.95
2017-08-03T07:20:28.255Z,34.50
2017-08-03T07:22:56.361Z,35.03
2017-08-03T07:25:24.480Z,50.70
2017-08-03T07:27:52.656Z,46.13
2017-08-03T07:30:20.730Z,36.05
2017-08-03T07:32:48.892Z,41.03
2017-08-03T07:35:17.122Z,32.35
2017-08-03T07:37:45.182Z,46.37
2017-08-03T07:40:13.366Z,38.38
2017-08-03T07:42:41.518Z,39.60
2017-08-03T07:45:09.589Z,39.80
2017-08-03T07:47:37.632Z,42.92
2017-08-03T07:50:05.834Z,48.87
2017-08-03T07:52:33.910Z,48.15
2017-08-03T07:55:01.955Z,29.90
2017-08-03T07:57:30.109Z,36.42
2017-08-03T07:59:58.204Z,36.63
2017-08-03T08:02:26.306Z,35.55
2017-08-03T08:04:54.519Z,36.60
2017-08-03T08:07:22.575Z,38.23
2017-08-03T08:09:50.621Z,37.92
2017-08-03T08:12:18.829Z,43.60
2017-08-03T08:14:46.909Z,36.38
2017-08-03T08:17:14.953Z,41.40
2017-08-03T08:19:43.187Z,30.33
2017-08-03T08:22:11.238Z,31.77
2017-08-03T08:24:39.303Z,31.77
2017-08-03T08:27:07.528Z,36.10
2017-08-03T08:29:35.564Z,38.42
2017-08-03T08:32:03.607Z,32.78
2017-08-03T08:34:31.979Z,39.05
2017-08-03T08:37:00.021Z,41.55
2017-08-03T08:39:28.152Z,38.70
2017-08-03T08:41:56.315Z,38.27
2017-08-03T08:44:24.395Z,54.17
2017-08-03T08:46:52.467Z,31.90
2017-08-03T08:49:20.603Z,39.50
2017-08-03T08:51:48.665Z,53.70
2017-08-03T08:54:16.694Z,32.83
2017-08-03T08:56:44.860Z,30.80
2017-08-03T08:59:12.894Z,35.63
2017-08-03T09:01:40.926Z,42.30
2017-08-03T09:04:09.090Z,42.87
2017-08-03T09:06:37.140Z,31.63
2017-08-03T09:09:05.409Z,41.58
2017-08-03T09:11:33.584Z,31.40
2017-08-03T09:14:01.656Z,35.90
2017-08-03T09:16:29.717Z,47.30
2017-08-03T09:18:57.896Z,46.30
2017-08-03T09:21:26.002Z,33.30
2017-08-03T09:23:54.064Z,34.00
2017-08-03T09:26:22.272Z,35.30
2017-08-03T09:28:50.334Z,33.47
2017-08-03T09:31:18.420Z,30.53
2017-08-03T09:33:46.599Z,33.58
2017-08-03T09:36:14.836Z,35.70
2017-08-03T09:38:43.147Z,24.73
2017-08-03T09:41:11.322Z,27.65
2017-08-03T09:43:39.692Z,27.37
2017-08-03T09:46:07.787Z,32.07
2017-08-03T09:48:35.962Z,38.00
2017-08-03T09:51:04.133Z,34.90
2017-08-03T09:53:32.191Z,30.50
2017-08-03T09:56:00.369Z,26.43
2017-08-03T09:58:28.434Z,35.07
2017-08-03T10:00:56.608Z,38.13
2017-08-03T10:03:24.783Z,30.90
2017-08-03T10:05:52.841Z,25.50
2017-08-03T10:08:20.886Z,22.00
2017-08-03T10:10:49.126Z,27.83
2017-08-03T10:13:17.182Z,27.17
2017-08-03T10:15:45.269Z,29.93
2017-08-03T10:18:13.439Z,24.47
2017-08-03T10:20:41.464Z,28.03
2017-08-03T10:23:09.568Z,29.00
2017-08-03T10:25:37.749Z,26.62
2017-08-03T10:28:05.846Z,24.45
2017-08-03T10:30:33.915Z,24.93
2017-08-03T10:33:02.065Z,30.57
2017-08-03T10:35:30.140Z,32.03
2017-08-03T10:37:58.292Z,31.50
2017-08-03T10:40:26.503Z,28.53
2017-08-03T10:42:54.562Z,36.03
2017-08-03T10:45:22.644Z,32.37
2017-08-03T10:47:50.834Z,27.23
2017-08-03T10:50:18.880Z,23.30
2017-08-03T10:52:46.918Z,27.53
2017-08-03T10:55:15.108Z,29.20
2017-08-03T10:57:43.186Z,29.30
2017-08-03T11:00:11.221Z,29.50
2017-08-03T11:02:39.422Z,27.30
2017-08-03T11:05:07.486Z,27.47
2017-08-03T11:07:35.556Z,23.73
2017-08-03T11:10:03.785Z,24.03
2017-08-03T11:12:31.856Z,25.33
2017-08-03T11:14:59.880Z,26.80
2017-08-03T11:17:28.044Z,28.03
2017-08-03T11:19:56.114Z,21.20
2017-08-03T11:22:24.185Z,29.27
2017-08-03T11:24:52.541Z,27.57
2017-08-03T11:27:20.610Z,32.40
2017-08-03T11:29:48.789Z,27.87
2017-08-03T11:32:17.009Z,29.03
2017-08-03T11:34:45.159Z,27.37
2017-08-03T11:37:13.194Z,23.83
2017-08-03T11:39:41.473Z,25.83
2017-08-03T11:42:09.565Z,24.90
2017-08-03T11:44:37.617Z,20.90
2017-08-03T11:47:05.836Z,26.00
2017-08-03T11:49:33.948Z,24.00
2017-08-03T11:52:02.022Z,27.30
2017-08-03T11:54:30.340Z,33.23
2017-08-03T11:56:58.452Z,30.40
2017-08-03T11:59:26.563Z,24.83
2017-08-03T12:01:54.754Z,24.00
2017-08-03T12:04:22.821Z,25.53
2017-08-03T12:06:50.883Z,28.40
2017-08-03T12:09:19.079Z,30.70
2017-08-03T12:11:47.134Z,25.20
2017-08-03T12:27:01.128Z,24.27
2017-08-03T12:29:29.804Z,24.70
2017-08-03T12:31:57.893Z,23.53
2017-08-03T12:34:26.080Z,21.73
2017-08-03T12:36:54.098Z,28.97
2017-08-03T12:39:22.184Z,30.70
2017-08-03T12:41:50.488Z,21.80
2017-08-03T12:44:18.600Z,28.83
2017-08-03T12:46:46.708Z,24.40
2017-08-03T12:49:14.893Z,16.80
2017-08-03T12:51:43.019Z,22.97
2017-08-03T12:54:11.096Z,27.80
2017-08-03T12:56:39.296Z,18.60
2017-08-03T12:59:07.526Z,29.43
2017-08-03T13:01:35.557Z,23.47
2017-08-03T13:04:03.719Z,20.23
2017-08-03T13:06:31.787Z,20.83
2017-08-03T13:08:59.853Z,26.33
2017-08-03T13:11:28.043Z,25.40
2017-08-03T13:13:56.152Z,22.37
2017-08-03T13:16:24.193Z,24.33
2017-08-03T13:18:52.371Z,26.77
2017-08-03T13:21:20.405Z,21.20
2017-08-03T13:23:48.476Z,19.70
2017-08-03T13:26:16.591Z,23.67
2017-08-03T13:28:44.638Z,30.77
2017-08-03T13:31:12.684Z,22.80
2017-08-03T13:33:40.918Z,27.67
2017-08-03T13:36:09.002Z,23.40
2017-08-03T13:38:37.046Z,27.20
2017-08-03T13:41:05.240Z,23.73
2017-08-03T13:43:33.412Z,22.00
2017-08-03T13:46:01.481Z,17.40
2017-08-03T13:48:29.709Z,19.87
2017-08-03T13:50:57.857Z,21.83
2017-08-03T13:53:25.934Z,22.03
2017-08-03T13:55:54.163Z,19.57
2017-08-03T13:58:22.230Z,15.63
2017-08-03T14:00:50.300Z,23.87
2017-08-03T14:03:18.430Z,25.37
2017-08-03T14:05:46.544Z,17.10
2017-08-03T14:08:14.629Z,26.27
2017-08-03T14:10:42.826Z,15.20
2017-08-03T14:13:10.818Z,20.30
2017-08-03T14:15:38.864Z,22.93
2017-08-03T14:18:07.064Z,23.33
2017-08-03T14:20:35.169Z,21.40
2017-08-03T14:23:03.206Z,28.60
2017-08-03T14:25:31.366Z,30.87
2017-08-03T14:27:59.473Z,22.67
2017-08-03T14:30:27.516Z,26.53
2017-08-03T14:32:55.832Z,21.40
2017-08-03T14:35:23.926Z,28.80
2017-08-03T14:37:51.988Z,23.83
2017-08-03T14:40:20.171Z,32.50
2017-08-03T14:42:48.250Z,28.03
2017-08-03T14:45:16.410Z,27.40
2017-08-03T14:47:44.581Z,27.73
2017-08-03T14:50:12.676Z,23.57
2017-08-03T14:52:40.842Z,25.67
2017-08-03T14:55:09.056Z,30.47
2017-08-03T14:57:37.145Z,25.70
2017-08-03T15:00:05.268Z,24.90
2017-08-03T15:02:33.464Z,23.30
2017-08-03T15:05:01.523Z,26.40
2017-08-03T15:07:29.563Z,26.77
2017-08-03T15:09:57.758Z,34.10
2017-08-03T15:12:25.794Z,20.10
2017-08-03T15:14:53.865Z,26.70
2017-08-03T15:17:22.106Z,20.83
2017-08-03T15:19:50.117Z,28.43
2017-08-03T15:22:18.148Z,27.63
2017-08-03T15:24:46.330Z,31.70
2017-08-03T15:27:14.396Z,37.20
2017-08-03T15:29:42.484Z,23.50
2017-08-03T15:32:10.666Z,34.27
2017-08-03T15:34:38.712Z,19.33
2017-08-03T15:37:06.804Z,29.83
2017-08-03T15:39:34.977Z,23.57
2017-08-03T15:42:03.218Z,28.73
2017-08-03T15:44:31.260Z,25.37
2017-08-03T15:46:59.623Z,31.93
2017-08-03T15:49:27.690Z,26.57
2017-08-03T15:51:55.761Z,27.37
2017-08-03T15:54:23.946Z,30.03
2017-08-03T15:56:52.104Z,36.40
2017-08-03T15:59:20.156Z,34.53
2017-08-03T16:01:48.346Z,32.67
2017-08-03T16:04:16.425Z,44.47
2017-08-03T16:06:44.482Z,41.00
2017-08-03T16:09:12.700Z,38.63
2017-08-03T16:11:40.724Z,35.60
2017-08-03T16:14:08.794Z,25.50
2017-08-03T16:16:36.990Z,31.37
2017-08-03T16:19:05.034Z,27.87
2017-08-03T16:21:33.127Z,37.23
2017-08-03T16:24:01.337Z,36.87
2017-08-03T16:26:29.426Z,34.30
2017-08-03T16:28:57.522Z,34.77
2017-08-03T16:31:25.705Z,35.83
2017-08-03T16:33:53.792Z,38.60
2017-08-03T16:36:21.852Z,36.30
2017-08-03T16:38:50.070Z,36.93
2017-08-03T16:41:18.164Z,40.33
2017-08-03T16:43:46.274Z,51.20
2017-08-03T16:46:14.468Z,47.67
2017-08-03T16:48:42.661Z,51.13
2017-08-03T16:51:10.753Z,34.37
2017-08-03T16:53:39.464Z,41.67
2017-08-03T16:56:08.233Z,51.80
2017-08-03T16:58:37.200Z,35.33
2017-08-03T17:01:05.575Z,43.33
2017-08-03T17:03:33.830Z,50.27
2017-08-03T17:06:02.530Z,37.13
2017-08-03T17:08:30.741Z,42.57
2017-08-03T17:10:59.172Z,29.73
2017-08-03T17:13:27.813Z,49.23
2017-08-03T17:15:56.445Z,45.87
2017-08-03T17:18:25.425Z,44.70
2017-08-03T17:20:54.392Z,38.87
2017-08-03T17:23:22.762Z,50.73
2017-08-03T17:25:51.625Z,46.43
2017-08-03T17:28:20.235Z,35.20
2017-08-03T17:30:48.624Z,41.60
2017-08-03T17:33:17.432Z,42.80
2017-08-03T17:35:46.789Z,34.73
2017-08-03T17:38:15.445Z,47.90
2017-08-03T17:40:43.743Z,32.97
2017-08-03T17:43:12.237Z,46.73
2017-08-03T17:45:40.853Z,32.00
2017-08-03T17:48:09.060Z,43.07
2017-08-03T17:50:37.918Z,38.53
2017-08-03T17:53:06.072Z,37.50
2017-08-03T17:55:34.808Z,47.60
2017-08-03T17:58:04.512Z,36.97
2017-08-03T18:00:33.049Z,40.93
2017-08-03T18:03:01.836Z,43.50
2017-08-03T18:05:31.158Z,33.83
2017-08-03T18:07:59.341Z,34.00
2017-08-03T18:10:27.763Z,26.13
2017-08-03T18:12:55.978Z,38.37
2017-08-03T18:15:24.192Z,48.20
2017-08-03T18:17:52.958Z,40.83
2017-08-03T18:20:22.697Z,43.07
2017-08-03T18:22:51.698Z,42.03
2017-08-03T18:25:20.357Z,36.70
2017-08-03T18:27:49.153Z,38.87
2017-08-03T18:30:17.714Z,32.13
2017-08-03T18:32:46.079Z,48.43
2017-08-03T18:35:14.898Z,31.33
2017-08-03T18:37:44.716Z,39.43
2017-08-03T18:40:14.433Z,37.60
2017-08-03T18:42:43.001Z,43.70
2017-08-03T18:45:11.240Z,42.93
2017-08-03T18:47:39.474Z,33.47
2017-08-03T18:50:07.711Z,33.20
2017-08-03T18:52:36.226Z,40.03
2017-08-03T18:55:04.523Z,34.63
2017-08-03T18:57:33.232Z,34.93
2017-08-03T19:00:01.920Z,33.37
2017-08-03T19:02:29.996Z,36.63
2017-08-03T19:04:58.219Z,28.40
2017-08-03T19:07:26.992Z,34.00
2017-08-03T19:09:56.557Z,31.30
2017-08-03T19:12:24.838Z,43.03
2017-08-03T19:14:53.205Z,32.07
2017-08-03T19:17:21.446Z,26.33
2017-08-03T19:19:50.084Z,30.47
2017-08-03T19:22:18.726Z,22.87
2017-08-03T19:24:48.428Z,30.37
2017-08-03T19:27:16.953Z,33.67
2017-08-03T19:29:45.288Z,31.60
2017-08-03T19:32:13.882Z,46.07
2017-08-03T19:34:42.464Z,32.20
2017-08-03T19:37:11.100Z,33.50
2017-08-03T19:39:39.708Z,24.63
2017-08-03T19:42:07.937Z,30.07
2017-08-03T19:44:36.520Z,28.40
2017-08-03T19:47:05.386Z,31.50
2017-08-03T19:49:35.226Z,30.40
2017-08-03T19:52:03.551Z,28.77
2017-08-03T19:54:32.173Z,30.87
2017-08-03T19:57:00.649Z,26.53
2017-08-03T19:59:30.082Z,25.40
2017-08-03T20:01:58.854Z,29.83
2017-08-03T20:04:27.522Z,31.27
2017-08-03T20:07:07.516Z,30.80
2017-08-03T20:09:39.045Z,24.00
2017-08-03T20:12:08.177Z,40.37
2017-08-03T20:14:36.818Z,29.77
2017-08-03T20:17:04.944Z,25.30
2017-08-03T20:19:33.420Z,31.60
2017-08-03T20:22:02.467Z,24.63
2017-08-03T20:24:31.049Z,25.27
2017-08-03T20:26:59.746Z,26.57
2017-08-03T20:29:29.145Z,23.17
2017-08-03T20:31:57.558Z,31.47
2017-08-03T20:34:25.761Z,25.40
2017-08-03T20:36:53.991Z,23.37
2017-08-03T20:39:22.248Z,24.30
2017-08-03T20:41:51.200Z,25.67
2017-08-03T20:44:19.812Z,32.23
2017-08-03T20:46:48.010Z,31.97
2017-08-03T20:49:16.904Z,26.17
2017-08-03T20:51:44.961Z,33.70
2017-08-03T20:54:13.250Z,21.67
2017-08-03T20:56:42.127Z,29.50
2017-08-03T20:59:10.786Z,31.13
2017-08-03T21:01:41.484Z,21.43
2017-08-03T21:04:09.899Z,19.20
2017-08-03T21:06:37.948Z,17.97
2017-08-03T21:09:06.028Z,27.37
2017-08-03T21:11:34.213Z,29.17
2017-08-03T21:14:02.224Z,21.83
2017-08-03T21:16:30.279Z,25.13
2017-08-03T21:18:58.449Z,19.57
2017-08-03T21:21:26.458Z,22.67
2017-08-03T21:23:54.581Z,30.77
2017-08-03T21:26:22.828Z,36.63
2017-08-03T21:28:50.911Z,32.13
2017-08-03T21:31:18.963Z,25.60
2017-08-03T21:33:47.114Z,23.03
2017-08-03T21:36:15.114Z,26.40
2017-08-03T21:38:43.109Z,32.23
2017-08-03T21:41:11.322Z,21.90
2017-08-03T21:43:39.366Z,22.50
2017-08-03T21:46:07.442Z,33.17
2017-08-03T21:48:35.724Z,31.07
2017-08-03T21:51:03.805Z,21.63
2017-08-03T21:53:31.862Z,19.00
2017-08-03T21:56:00.066Z,28.57
2017-08-03T21:58:28.247Z,31.37
2017-08-03T22:01:07.882Z,24.30
2017-08-03T22:03:35.940Z,27.60
2017-08-03T22:06:04.373Z,28.40
2017-08-03T22:08:32.546Z,28.40
2017-08-03T22:11:00.668Z,19.00
2017-08-03T22:13:28.748Z,32.43
2017-08-03T22:15:56.884Z,26.37
2017-08-03T22:18:25.035Z,38.13
2017-08-03T22:20:53.109Z,44.77
2017-08-03T22:23:21.306Z,42.60
2017-08-03T22:25:49.349Z,41.00
2017-08-03T22:28:17.435Z,30.13
2017-08-03T22:30:45.562Z,35.43
2017-08-03T22:33:13.649Z,32.83
2017-08-03T22:35:41.714Z,42.50
2017-08-03T22:38:09.914Z,35.20
2017-08-03T22:40:37.946Z,36.87
2017-08-03T22:43:06.000Z,28.73
2017-08-03T22:45:34.150Z,28.80
2017-08-03T22:48:02.196Z,37.57
2017-08-03T22:50:30.304Z,45.97
2017-08-03T22:52:58.480Z,29.33
2017-08-03T22:55:26.555Z,34.80
2017-08-03T22:57:54.618Z,33.30
2017-08-03T23:00:22.934Z,28.77
2017-08-03T23:02:51.056Z,29.40
2017-08-03T23:05:19.073Z,29.60
2017-08-03T23:07:47.264Z,31.53
2017-08-03T23:10:15.347Z,28.80
2017-08-03T23:12:43.388Z,35.83
2017-08-03T23:15:11.618Z,40.57
2017-08-03T23:17:39.690Z,30.47
2017-08-03T23:20:07.733Z,42.20
2017-08-03T23:22:35.882Z,48.27
2017-08-03T23:25:03.960Z,54.43
2017-08-03T23:27:31.991Z,62.30
2017-08-03T23:30:00.163Z,43.50
2017-08-03T23:32:28.265Z,47.40
2017-08-03T23:34:56.329Z,62.30
2017-08-03T23:37:24.536Z,50.97
2017-08-03T23:39:52.678Z,59.67
2017-08-03T23:42:20.733Z,59.33
2017-08-03T23:44:48.869Z,44.20
2017-08-03T23:47:16.908Z,50.37
2017-08-03T23:49:45.010Z,56.57
2017-08-03T23:52:13.236Z,67.07
2017-08-03T23:54:41.243Z,67.80
2017-08-03T23:57:09.363Z,50.33
2017-08-03T23:59:37.539Z,65.00
